Forestville, Michigan
Current Conditions -  °F | °C
As of 11:19 AM on Saturday 25 Oct 2014 (Local Time) from KBAX Reporting Station
Haze Haze  
Wind Chill: 56°   Ceiling: 1000
Heat Index: 56°   Visibility: 5mi
Dew Point: 53°   Wind: 16mph
Humidity: 89%   Direction: 280°W
Pressure: 29.74"   Gusts: 22mph
Location:  43.66°N, 82.61°W
Report Text: KBAX 251519Z AUTO 28014G19KT 5SM BR OVC010 13/12 A2974 RMK AO2 T01320115
Loading
Personal Weather Stations






























Interactive Weather Map
Tropical Storm Tracking
New forecast layout! Learn more

10-Day Weather Forecast

Advertisements
Track Severe Weather on mobile